Time;durP1;ratioP1;P1;durP2;ratioP2;P2;SDS_P1;SDS_P2;PMS_P1;PMS_P2;Temp;Humidity;BMP_temperature;BMP_pressure;BME280_temperature;BME280_humidity;BME280_pressure;Samples;Min_cycle;Max_cycle;Signal;HPM_P1;HPM_P2
2022/12/12 00:01:14;;;;;;;35.65;23.23;;;;;;;;;;5038176;28;20531;-65
2022/12/12 00:03:40;;;;;;;41.20;24.67;;;;;;;;;;5038539;28;20277;-65
2022/12/12 00:06:06;;;;;;;44.13;24.08;;;;;;;;;;5038241;28;20220;-65
2022/12/12 00:08:33;;;;;;;42.67;23.73;;;;;;;;;;5038165;28;20505;-65
2022/12/12 00:10:59;;;;;;;38.92;24.77;;;;;;;;;;5040963;28;20197;-65
2022/12/12 00:13:25;;;;;;;41.22;23.23;;;;;;;;;;5041775;27;20415;-65
2022/12/12 00:15:51;;;;;;;38.88;23.58;;;;;;;;;;5041668;28;20199;-65
2022/12/12 00:18:19;;;;;;;39.90;24.35;;;;;;;;;;5041589;28;20204;-65
2022/12/12 00:20:50;;;;;;;46.45;25.05;;;;;;;;;;5041637;28;20528;-65
2022/12/12 00:23:16;;;;;;;43.47;24.92;;;;;;;;;;5041794;28;20194;-65
2022/12/12 00:25:42;;;;;;;37.88;24.10;;;;;;;;;;5041560;28;20395;-65
2022/12/12 00:28:09;;;;;;;43.80;24.88;;;;;;;;;;5041128;28;20217;-65
2022/12/12 00:30:35;;;;;;;36.42;23.42;;;;;;;;;;5041650;27;20502;-65
2022/12/12 00:33:01;;;;;;;42.42;24.58;;;;;;;;;;5041400;28;20217;-65
2022/12/12 00:35:29;;;;;;;39.05;23.80;;;;;;;;;;5041542;28;20270;-65
2022/12/12 00:37:55;;;;;;;37.10;22.70;;;;;;;;;;5041390;28;20388;-65
2022/12/12 00:40:22;;;;;;;40.70;24.92;;;;;;;;;;5041067;28;20268;-65
2022/12/12 00:42:48;;;;;;;40.08;23.42;;;;;;;;;;5041260;28;20198;-65
2022/12/12 00:45:14;;;;;;;42.70;24.40;;;;;;;;;;5041264;28;20205;-66
2022/12/12 00:47:41;;;;;;;45.15;25.00;;;;;;;;;;5041257;28;20204;-65
2022/12/12 00:50:07;;;;;;;43.35;24.85;;;;;;;;;;5041189;28;20232;-65
2022/12/12 00:52:35;;;;;;;40.22;25.65;;;;;;;;;;5041328;28;20392;-65
2022/12/12 00:55:01;;;;;;;44.83;25.20;;;;;;;;;;5041174;28;20226;-65
2022/12/12 00:57:28;;;;;;;43.83;24.02;;;;;;;;;;5040910;28;20269;-66
2022/12/12 00:59:54;;;;;;;40.72;24.33;;;;;;;;;;5040835;28;20198;-66
2022/12/12 01:02:21;;;;;;;38.33;24.50;;;;;;;;;;5041164;28;20204;-66
2022/12/12 01:04:47;;;;;;;40.20;23.40;;;;;;;;;;5041071;28;20194;-66
2022/12/12 01:07:13;;;;;;;42.22;24.10;;;;;;;;;;5041059;28;20381;-66
2022/12/12 01:09:41;;;;;;;40.63;23.77;;;;;;;;;;5041220;28;20198;-66
2022/12/12 01:12:07;;;;;;;41.38;24.48;;;;;;;;;;5040866;28;20205;-66
2022/12/12 01:14:34;;;;;;;38.97;24.17;;;;;;;;;;5040927;28;20290;-66
2022/12/12 01:17:00;;;;;;;34.58;22.48;;;;;;;;;;5040995;28;20205;-66
2022/12/12 01:19:26;;;;;;;37.38;23.13;;;;;;;;;;5040629;28;20390;-66
2022/12/12 01:21:52;;;;;;;38.65;23.02;;;;;;;;;;5040692;28;20193;-66
2022/12/12 01:24:19;;;;;;;38.20;23.38;;;;;;;;;;5040792;28;20193;-66
2022/12/12 01:26:46;;;;;;;35.28;22.77;;;;;;;;;;5040524;28;20202;-66
2022/12/12 01:29:13;;;;;;;37.63;22.92;;;;;;;;;;5040191;28;20232;-66
2022/12/12 01:31:39;;;;;;;38.50;22.33;;;;;;;;;;5040751;28;20217;-66
2022/12/12 01:34:06;;;;;;;38.50;23.20;;;;;;;;;;5040507;28;20241;-66
2022/12/12 01:36:32;;;;;;;36.05;22.00;;;;;;;;;;5040486;28;20265;-66
2022/12/12 01:38:59;;;;;;;35.13;22.42;;;;;;;;;;5040205;28;20202;-66
2022/12/12 01:41:26;;;;;;;35.67;22.65;;;;;;;;;;5040655;28;20233;-66
2022/12/12 01:43:54;;;;;;;34.70;21.33;;;;;;;;;;5040570;28;20441;-66
2022/12/12 01:46:32;;;;;;;32.30;21.20;;;;;;;;;;5040363;27;20225;-66
2022/12/12 01:49:00;;;;;;;36.03;22.20;;;;;;;;;;5040258;28;20243;-66
2022/12/12 01:51:27;;;;;;;35.25;21.42;;;;;;;;;;5040251;28;20268;-66
2022/12/12 01:53:54;;;;;;;31.10;20.55;;;;;;;;;;5040046;28;20218;-66
2022/12/12 01:56:21;;;;;;;31.02;20.35;;;;;;;;;;5040362;28;20216;-66
2022/12/12 01:58:49;;;;;;;34.60;21.35;;;;;;;;;;5039772;28;20277;-66
2022/12/12 02:01:17;;;;;;;36.30;21.65;;;;;;;;;;5040092;28;20198;-66
2022/12/12 02:03:44;;;;;;;36.70;22.25;;;;;;;;;;5040536;28;20204;-66
2022/12/12 02:06:11;;;;;;;36.20;21.55;;;;;;;;;;5039932;28;20190;-66
2022/12/12 02:08:38;;;;;;;38.25;23.00;;;;;;;;;;5039931;28;20280;-66
2022/12/12 02:11:04;;;;;;;30.92;20.17;;;;;;;;;;5040046;28;20221;-66
2022/12/12 02:13:32;;;;;;;36.97;21.08;;;;;;;;;;5039665;28;20214;-66
2022/12/12 02:16:02;;;;;;;33.17;21.73;;;;;;;;;;5040141;28;20295;-66
2022/12/12 02:18:35;;;;;;;32.28;20.15;;;;;;;;;;5039623;28;20197;-66
2022/12/12 02:21:11;;;;;;;31.08;19.75;;;;;;;;;;5039900;28;20212;-65
2022/12/12 02:23:56;;;;;;;33.78;20.73;;;;;;;;;;5039953;28;20515;-65
2022/12/12 02:26:41;;;;;;;33.67;20.45;;;;;;;;;;5039843;28;20198;-66
2022/12/12 02:29:24;;;;;;;31.33;20.00;;;;;;;;;;5039275;28;20447;-66
2022/12/12 02:31:53;;;;;;;29.15;19.15;;;;;;;;;;5039679;28;20209;-66
2022/12/12 02:34:25;;;;;;;35.80;21.10;;;;;;;;;;5039237;28;20405;-66
2022/12/12 02:36:59;;;;;;;33.95;20.77;;;;;;;;;;5039687;28;20534;-66
2022/12/12 02:39:27;;;;;;;34.22;20.95;;;;;;;;;;5038740;28;20204;-65
2022/12/12 02:41:55;;;;;;;32.75;20.13;;;;;;;;;;5039608;28;20205;-65
2022/12/12 02:44:25;;;;;;;36.05;20.42;;;;;;;;;;5039496;28;20207;-65
2022/12/12 02:46:56;;;;;;;33.60;20.80;;;;;;;;;;5039486;28;20421;-65
2022/12/12 02:49:23;;;;;;;31.23;19.48;;;;;;;;;;5039161;28;20224;-65
2022/12/12 02:51:50;;;;;;;38.35;21.23;;;;;;;;;;5039247;28;20198;-65
2022/12/12 02:54:18;;;;;;;34.00;20.83;;;;;;;;;;5039558;28;20227;-65
2022/12/12 02:56:46;;;;;;;33.47;20.35;;;;;;;;;;5039464;28;20233;-65
2022/12/12 02:59:15;;;;;;;32.08;20.42;;;;;;;;;;5038994;28;20212;-65
2022/12/12 03:01:46;;;;;;;34.10;21.35;;;;;;;;;;5039323;28;20198;-66
2022/12/12 03:09:56;;;;;;;42.92;23.33;;;;;;;;;;5038933;28;20409;-66
2022/12/12 03:12:27;;;;;;;40.70;23.67;;;;;;;;;;5039202;28;20493;-66
2022/12/12 03:14:56;;;;;;;40.53;22.92;;;;;;;;;;5038902;28;20264;-65
2022/12/12 03:17:27;;;;;;;38.00;22.55;;;;;;;;;;5039066;28;20437;-65
2022/12/12 03:19:56;;;;;;;34.20;21.08;;;;;;;;;;5038867;28;20218;-65
2022/12/12 03:22:25;;;;;;;36.03;21.25;;;;;;;;;;5039088;28;20198;-65
2022/12/12 03:24:55;;;;;;;32.78;21.08;;;;;;;;;;5038982;28;20194;-65
2022/12/12 03:27:23;;;;;;;35.20;20.98;;;;;;;;;;5038822;28;20268;-65
2022/12/12 03:29:53;;;;;;;31.77;21.02;;;;;;;;;;5038545;28;20212;-65
2022/12/12 03:32:23;;;;;;;36.92;21.95;;;;;;;;;;5038982;28;20204;-66
2022/12/12 03:34:51;;;;;;;35.58;22.25;;;;;;;;;;5038943;28;20222;-66
2022/12/12 03:37:21;;;;;;;37.88;22.42;;;;;;;;;;5038804;28;20197;-66
2022/12/12 03:39:49;;;;;;;35.50;22.15;;;;;;;;;;5038406;28;20206;-66
2022/12/12 03:42:19;;;;;;;35.05;21.10;;;;;;;;;;5038909;28;20202;-65
2022/12/12 03:44:48;;;;;;;37.65;21.70;;;;;;;;;;5039456;28;20215;-66
2022/12/12 03:47:17;;;;;;;35.00;20.70;;;;;;;;;;5042107;28;20197;-66
2022/12/12 03:49:46;;;;;;;38.50;22.85;;;;;;;;;;5042050;28;20198;-66
2022/12/12 03:52:15;;;;;;;35.13;21.60;;;;;;;;;;5041975;28;20197;-66
2022/12/12 03:54:45;;;;;;;33.80;21.88;;;;;;;;;;5042228;28;20224;-66
2022/12/12 03:57:15;;;;;;;34.38;20.20;;;;;;;;;;5042375;28;20198;-65
2022/12/12 03:59:44;;;;;;;32.70;20.55;;;;;;;;;;5042230;28;20204;-65
2022/12/12 04:02:13;;;;;;;33.63;21.55;;;;;;;;;;5041964;28;20398;-65
2022/12/12 04:04:43;;;;;;;32.47;19.83;;;;;;;;;;5041932;28;20194;-66
2022/12/12 04:07:13;;;;;;;33.78;20.45;;;;;;;;;;5042074;28;20216;-66
2022/12/12 04:15:19;;;;;;;34.65;20.92;;;;;;;;;;5041543;28;20478;-66
2022/12/12 04:17:50;;;;;;;30.23;19.77;;;;;;;;;;5041538;28;20206;-66
2022/12/12 04:23:15;;;;;;;31.63;19.70;;;;;;;;;;5041685;28;20240;-66
2022/12/12 04:28:29;;;;;;;33.83;19.85;;;;;;;;;;5041074;28;20553;-66
2022/12/12 04:30:57;;;;;;;36.40;20.50;;;;;;;;;;5041336;28;20198;-66
2022/12/12 04:33:27;;;;;;;33.05;20.40;;;;;;;;;;5041516;28;20233;-66
2022/12/12 04:35:55;;;;;;;31.73;19.58;;;;;;;;;;5041196;28;20224;-66
2022/12/12 04:38:23;;;;;;;33.92;20.67;;;;;;;;;;5041273;28;20190;-66
2022/12/12 04:40:51;;;;;;;31.70;19.15;;;;;;;;;;5041554;28;20204;-66
2022/12/12 04:43:18;;;;;;;32.05;19.10;;;;;;;;;;5041457;28;20397;-66
2022/12/12 04:45:47;;;;;;;32.13;20.27;;;;;;;;;;5041374;28;20208;-66
2022/12/12 04:48:16;;;;;;;29.15;19.58;;;;;;;;;;5040986;28;20198;-66
2022/12/12 04:50:43;;;;;;;33.10;20.02;;;;;;;;;;5041121;28;20202;-66
2022/12/12 04:53:11;;;;;;;34.30;18.83;;;;;;;;;;5041239;28;20457;-66
2022/12/12 04:55:39;;;;;;;33.00;20.45;;;;;;;;;;5040637;28;20229;-66
2022/12/12 04:58:07;;;;;;;30.63;19.70;;;;;;;;;;5040817;28;20273;-66
2022/12/12 05:00:38;;;;;;;33.03;20.67;;;;;;;;;;5041112;28;20235;-65
2022/12/12 05:03:09;;;;;;;37.53;20.95;;;;;;;;;;5040951;28;20206;-65
2022/12/12 05:05:39;;;;;;;35.15;20.02;;;;;;;;;;5041177;28;20198;-66
2022/12/12 05:08:07;;;;;;;34.60;20.58;;;;;;;;;;5040800;28;20219;-66
2022/12/12 05:10:33;;;;;;;29.85;18.33;;;;;;;;;;5040998;28;20204;-66
2022/12/12 05:13:00;;;;;;;28.10;18.58;;;;;;;;;;5041015;28;20197;-66
2022/12/12 05:15:27;;;;;;;29.83;19.50;;;;;;;;;;5041322;28;20217;-66
2022/12/12 05:17:57;;;;;;;28.13;18.00;;;;;;;;;;5040951;28;20198;-66
2022/12/12 05:20:25;;;;;;;29.15;18.65;;;;;;;;;;5040752;28;20206;-66
2022/12/12 05:22:51;;;;;;;26.60;17.10;;;;;;;;;;5040761;28;20232;-65
2022/12/12 05:25:17;;;;;;;27.38;16.85;;;;;;;;;;5041143;28;20389;-66
2022/12/12 05:27:44;;;;;;;26.05;16.85;;;;;;;;;;5040632;28;20225;-66
2022/12/12 05:30:11;;;;;;;29.42;17.30;;;;;;;;;;5040244;28;20577;-66
2022/12/12 05:32:37;;;;;;;24.75;16.60;;;;;;;;;;5040529;28;20197;-66
2022/12/12 05:35:04;;;;;;;27.10;17.77;;;;;;;;;;5040462;28;20224;-66
2022/12/12 05:37:32;;;;;;;28.17;17.50;;;;;;;;;;5040520;28;20201;-66
2022/12/12 05:39:58;;;;;;;28.20;17.55;;;;;;;;;;5040423;28;20206;-66
2022/12/12 05:42:25;;;;;;;28.00;17.50;;;;;;;;;;5040460;28;20201;-66
2022/12/12 05:44:51;;;;;;;30.42;17.83;;;;;;;;;;5040600;27;20201;-66
2022/12/12 05:47:18;;;;;;;25.83;16.38;;;;;;;;;;5040909;28;20202;-66
2022/12/12 05:49:44;;;;;;;28.52;16.80;;;;;;;;;;5040270;28;20244;-65
2022/12/12 05:52:10;;;;;;;29.63;17.63;;;;;;;;;;5040298;28;20212;-65
2022/12/12 05:54:39;;;;;;;28.83;18.15;;;;;;;;;;5040222;28;20214;-66
2022/12/12 05:57:05;;;;;;;32.58;18.88;;;;;;;;;;5040249;28;20205;-66
2022/12/12 05:59:31;;;;;;;32.97;20.05;;;;;;;;;;5040158;28;20202;-65
2022/12/12 06:01:58;;;;;;;30.90;18.58;;;;;;;;;;5040755;28;20505;-65
2022/12/12 06:04:24;;;;;;;31.70;18.52;;;;;;;;;;5040431;28;20186;-65
2022/12/12 06:06:50;;;;;;;31.02;18.15;;;;;;;;;;5039699;28;20393;-65
2022/12/12 06:09:17;;;;;;;31.73;19.92;;;;;;;;;;5039280;28;20258;-65
2022/12/12 06:11:44;;;;;;;35.92;20.48;;;;;;;;;;5039688;28;20208;-65
2022/12/12 06:14:11;;;;;;;34.10;20.10;;;;;;;;;;5039918;28;20204;-65
2022/12/12 06:16:37;;;;;;;41.25;22.08;;;;;;;;;;5040000;28;20433;-65
2022/12/12 06:19:04;;;;;;;34.22;19.48;;;;;;;;;;5039556;28;20198;-65
2022/12/12 06:21:30;;;;;;;32.85;19.83;;;;;;;;;;5039756;28;20209;-65
2022/12/12 06:23:56;;;;;;;43.17;22.58;;;;;;;;;;5039742;28;20220;-65
2022/12/12 06:26:23;;;;;;;34.78;21.05;;;;;;;;;;5039521;28;20205;-65
2022/12/12 06:28:50;;;;;;;35.28;21.00;;;;;;;;;;5039417;28;20218;-65
2022/12/12 06:31:18;;;;;;;33.42;21.02;;;;;;;;;;5039506;28;20204;-65
2022/12/12 06:33:44;;;;;;;39.10;21.05;;;;;;;;;;5039826;28;20198;-66
2022/12/12 06:36:11;;;;;;;32.92;19.45;;;;;;;;;;5039538;28;20233;-66
2022/12/12 06:38:38;;;;;;;38.17;21.50;;;;;;;;;;5039369;28;20225;-66
2022/12/12 06:41:05;;;;;;;37.53;21.65;;;;;;;;;;5039344;28;20212;-66
2022/12/12 06:43:31;;;;;;;39.17;21.20;;;;;;;;;;5039808;28;20198;-66
2022/12/12 06:46:02;;;;;;;34.20;20.95;;;;;;;;;;5039338;28;20194;-67
2022/12/12 06:48:29;;;;;;;38.97;20.95;;;;;;;;;;5039421;28;20197;-67
2022/12/12 06:50:55;;;;;;;38.25;21.10;;;;;;;;;;5039230;28;20197;-67
2022/12/12 06:53:21;;;;;;;38.45;22.20;;;;;;;;;;5039424;28;20198;-67
2022/12/12 06:55:47;;;;;;;40.15;21.02;;;;;;;;;;5039114;28;20230;-67
2022/12/12 06:58:14;;;;;;;32.50;20.65;;;;;;;;;;5039132;28;20197;-67
2022/12/12 07:00:40;;;;;;;31.60;20.48;;;;;;;;;;5039532;28;20197;-67
2022/12/12 07:03:08;;;;;;;36.67;20.73;;;;;;;;;;5039199;28;20212;-67
2022/12/12 07:05:35;;;;;;;34.15;20.38;;;;;;;;;;5039168;28;20204;-68
2022/12/12 07:08:01;;;;;;;32.28;19.67;;;;;;;;;;5038786;28;20220;-67
2022/12/12 07:10:28;;;;;;;33.85;21.58;;;;;;;;;;5039273;28;20394;-67
2022/12/12 07:12:54;;;;;;;34.63;20.13;;;;;;;;;;5039258;28;20386;-67
2022/12/12 07:15:21;;;;;;;35.10;20.40;;;;;;;;;;5039039;28;20224;-67
2022/12/12 07:17:47;;;;;;;31.45;19.70;;;;;;;;;;5038973;28;20204;-67
2022/12/12 07:20:14;;;;;;;37.70;21.08;;;;;;;;;;5038521;28;20202;-67
2022/12/12 07:22:41;;;;;;;32.38;19.70;;;;;;;;;;5038807;28;20198;-68
2022/12/12 07:25:08;;;;;;;40.17;21.00;;;;;;;;;;5039298;28;20189;-67
2022/12/12 07:27:34;;;;;;;36.75;20.98;;;;;;;;;;5038952;28;20408;-68
2022/12/12 07:30:00;;;;;;;35.13;21.25;;;;;;;;;;5038616;28;20446;-67
2022/12/12 07:32:27;;;;;;;36.08;20.27;;;;;;;;;;5038873;28;20201;-67
2022/12/12 07:34:53;;;;;;;38.28;21.55;;;;;;;;;;5038723;28;20533;-67
2022/12/12 07:37:21;;;;;;;34.78;20.25;;;;;;;;;;5038662;28;20206;-67
2022/12/12 07:39:47;;;;;;;34.97;20.48;;;;;;;;;;5038610;28;20204;-67
2022/12/12 07:42:13;;;;;;;36.08;19.88;;;;;;;;;;5038676;28;20212;-68
2022/12/12 07:44:40;;;;;;;35.80;19.85;;;;;;;;;;5038787;28;20198;-68
2022/12/12 07:47:06;;;;;;;36.08;21.02;;;;;;;;;;5038649;28;20386;-67
2022/12/12 07:49:32;;;;;;;35.38;19.98;;;;;;;;;;5038821;28;20198;-67
2022/12/12 07:51:58;;;;;;;36.03;19.92;;;;;;;;;;5038581;28;20212;-67
2022/12/12 07:54:26;;;;;;;37.47;19.98;;;;;;;;;;5038860;28;20212;-67
2022/12/12 07:56:52;;;;;;;36.53;21.02;;;;;;;;;;5038559;28;20221;-67
2022/12/12 07:59:19;;;;;;;32.88;18.27;;;;;;;;;;5038785;28;20198;-68
2022/12/12 08:01:45;;;;;;;33.97;19.52;;;;;;;;;;5038534;28;20197;-68
2022/12/12 08:04:11;;;;;;;36.22;20.77;;;;;;;;;;5038598;28;20204;-69
2022/12/12 08:06:38;;;;;;;32.17;19.77;;;;;;;;;;5038631;28;20475;-67
2022/12/12 08:09:04;;;;;;;35.28;20.48;;;;;;;;;;5038327;28;20198;-68
2022/12/12 08:11:32;;;;;;;33.80;19.70;;;;;;;;;;5038323;28;20198;-68
2022/12/12 08:13:58;;;;;;;34.20;20.17;;;;;;;;;;5038383;28;20198;-68
2022/12/12 08:16:25;;;;;;;31.05;19.02;;;;;;;;;;5038356;28;20225;-68
2022/12/12 08:18:53;;;;;;;32.83;19.33;;;;;;;;;;5038025;28;20198;-68
2022/12/12 08:21:19;;;;;;;32.60;18.77;;;;;;;;;;5038256;28;20206;-68
2022/12/12 08:23:45;;;;;;;33.05;19.42;;;;;;;;;;5038490;28;20210;-68
2022/12/12 08:26:13;;;;;;;32.60;18.40;;;;;;;;;;5038231;28;20194;-68
2022/12/12 08:28:42;;;;;;;29.13;18.60;;;;;;;;;;5038159;28;20228;-68
2022/12/12 08:31:09;;;;;;;33.30;18.77;;;;;;;;;;5039510;28;20225;-67
2022/12/12 08:33:35;;;;;;;34.72;19.50;;;;;;;;;;5041619;28;20257;-67
2022/12/12 08:36:10;;;;;;;34.13;18.48;;;;;;;;;;5041422;28;20225;-67
2022/12/12 08:38:36;;;;;;;33.75;18.77;;;;;;;;;;5041401;28;20452;-67
2022/12/12 08:41:03;;;;;;;31.60;18.67;;;;;;;;;;5041482;28;20198;-67
2022/12/12 08:43:29;;;;;;;33.35;18.42;;;;;;;;;;5041449;28;20197;-67
2022/12/12 08:46:00;;;;;;;30.58;19.63;;;;;;;;;;5041251;28;20489;-67
2022/12/12 08:48:26;;;;;;;33.03;18.20;;;;;;;;;;5041340;28;20534;-67
2022/12/12 08:50:53;;;;;;;28.80;17.58;;;;;;;;;;5041665;28;20194;-67
2022/12/12 08:53:19;;;;;;;30.88;17.73;;;;;;;;;;5041501;28;20373;-67
2022/12/12 08:55:45;;;;;;;30.42;18.88;;;;;;;;;;5041241;27;20390;-67
2022/12/12 08:58:11;;;;;;;34.30;18.08;;;;;;;;;;5040934;28;20212;-67
2022/12/12 09:00:38;;;;;;;28.33;17.42;;;;;;;;;;5040998;28;20190;-67
2022/12/12 09:03:05;;;;;;;31.08;18.15;;;;;;;;;;5041317;28;20197;-67
2022/12/12 09:05:32;;;;;;;27.27;16.83;;;;;;;;;;5041208;28;20388;-67
2022/12/12 09:07:59;;;;;;;27.45;16.90;;;;;;;;;;5041102;28;20269;-67
2022/12/12 09:10:25;;;;;;;29.27;17.65;;;;;;;;;;5041020;28;20243;-67
2022/12/12 09:12:51;;;;;;;29.55;17.52;;;;;;;;;;5040985;28;20547;-67
2022/12/12 09:15:18;;;;;;;30.58;17.88;;;;;;;;;;5040665;28;20226;-67
2022/12/12 09:17:44;;;;;;;27.77;16.60;;;;;;;;;;5041025;28;20384;-67
2022/12/12 09:20:12;;;;;;;27.65;16.60;;;;;;;;;;5040595;28;20248;-67
2022/12/12 09:22:39;;;;;;;27.02;16.75;;;;;;;;;;5040723;28;20209;-67
2022/12/12 09:25:05;;;;;;;28.00;17.60;;;;;;;;;;5040860;28;20401;-67
2022/12/12 09:27:32;;;;;;;25.67;14.85;;;;;;;;;;5040668;28;20226;-67
2022/12/12 09:29:58;;;;;;;27.88;17.08;;;;;;;;;;5040203;28;20276;-67
2022/12/12 09:32:25;;;;;;;24.55;15.45;;;;;;;;;;5040215;28;20198;-67
2022/12/12 09:34:51;;;;;;;27.88;15.95;;;;;;;;;;5040518;27;20268;-67
2022/12/12 09:37:19;;;;;;;26.25;16.27;;;;;;;;;;5040174;28;20222;-67
2022/12/12 09:39:45;;;;;;;24.20;15.77;;;;;;;;;;5039943;28;20205;-67
2022/12/12 09:42:17;;;;;;;28.17;17.63;;;;;;;;;;5039997;28;20519;-67
2022/12/12 09:44:43;;;;;;;32.28;18.42;;;;;;;;;;5040580;28;20204;-67
2022/12/12 09:47:13;;;;;;;26.65;15.95;;;;;;;;;;5040371;28;20284;-67
2022/12/12 09:49:42;;;;;;;26.30;16.13;;;;;;;;;;5039857;28;20211;-67
2022/12/12 09:52:10;;;;;;;24.60;15.13;;;;;;;;;;5039843;28;20497;-67
2022/12/12 09:54:38;;;;;;;23.90;16.02;;;;;;;;;;5039720;28;20269;-67
2022/12/12 09:57:09;;;;;;;25.92;16.13;;;;;;;;;;5040023;28;20408;-67
2022/12/12 09:59:39;;;;;;;25.52;17.02;;;;;;;;;;5039950;28;20212;-67
2022/12/12 10:02:19;;;;;;;22.55;15.88;;;;;;;;;;5039950;28;20224;-67
2022/12/12 10:04:51;;;;;;;29.58;15.93;;;;;;;;;;5039783;28;20198;-67
2022/12/12 10:07:21;;;;;;;24.40;16.50;;;;;;;;;;5040063;28;20206;-67
2022/12/12 10:09:53;;;;;;;25.48;16.05;;;;;;;;;;5039450;28;20225;-67
2022/12/12 10:12:21;;;;;;;24.48;16.48;;;;;;;;;;5039979;28;20198;-67
2022/12/12 10:14:49;;;;;;;24.90;16.70;;;;;;;;;;5039816;28;20480;-67
2022/12/12 10:17:17;;;;;;;23.67;16.13;;;;;;;;;;5039886;28;20221;-67
2022/12/12 10:19:47;;;;;;;26.10;17.73;;;;;;;;;;5039579;28;20198;-67
2022/12/12 10:22:16;;;;;;;27.15;16.67;;;;;;;;;;5040152;28;20212;-67
2022/12/12 10:24:45;;;;;;;24.42;16.65;;;;;;;;;;5040093;28;20224;-67
2022/12/12 10:27:13;;;;;;;24.95;16.48;;;;;;;;;;5039572;28;20202;-67
2022/12/12 10:29:41;;;;;;;27.08;16.25;;;;;;;;;;5039695;28;20204;-67
2022/12/12 10:32:11;;;;;;;29.98;18.05;;;;;;;;;;5039649;28;20198;-67
2022/12/12 10:34:46;;;;;;;25.88;16.85;;;;;;;;;;5040035;28;20269;-67
2022/12/12 10:37:21;;;;;;;26.52;17.60;;;;;;;;;;5039759;28;20221;-67
2022/12/12 10:39:53;;;;;;;27.00;17.00;;;;;;;;;;5039611;28;20381;-67
2022/12/12 10:42:23;;;;;;;28.13;18.13;;;;;;;;;;5039735;28;20204;-67
2022/12/12 10:44:54;;;;;;;27.20;17.70;;;;;;;;;;5039956;28;20206;-67
2022/12/12 10:47:20;;;;;;;32.15;19.10;;;;;;;;;;5039864;28;20490;-67
2022/12/12 10:49:48;;;;;;;24.23;16.45;;;;;;;;;;5039580;28;20338;-67
2022/12/12 10:52:17;;;;;;;26.38;17.00;;;;;;;;;;5039611;28;20232;-67
2022/12/12 10:54:44;;;;;;;30.50;18.05;;;;;;;;;;5038888;28;20393;-67
2022/12/12 10:57:13;;;;;;;29.00;16.60;;;;;;;;;;5039505;28;20361;-67
2022/12/12 10:59:42;;;;;;;27.63;16.90;;;;;;;;;;5039091;28;20233;-67
2022/12/12 11:02:21;;;;;;;27.02;16.52;;;;;;;;;;5039279;28;20208;-67
2022/12/12 11:04:47;;;;;;;25.27;16.67;;;;;;;;;;5039166;28;20204;-67
2022/12/12 11:07:18;;;;;;;27.80;16.88;;;;;;;;;;5039505;28;20196;-67
2022/12/12 11:09:45;;;;;;;27.67;16.55;;;;;;;;;;5038960;28;20229;-67
2022/12/12 11:12:12;;;;;;;26.55;16.92;;;;;;;;;;5039383;28;20446;-67
2022/12/12 11:14:40;;;;;;;27.92;17.67;;;;;;;;;;5039277;28;20524;-67
2022/12/12 11:17:20;;;;;;;26.63;16.20;;;;;;;;;;5038936;28;20217;-67
2022/12/12 11:19:46;;;;;;;30.83;16.42;;;;;;;;;;5038803;28;20205;-67
2022/12/12 11:22:13;;;;;;;23.80;16.58;;;;;;;;;;5038833;28;20205;-67
2022/12/12 11:24:42;;;;;;;27.50;16.70;;;;;;;;;;5039437;28;20220;-67
2022/12/12 11:27:14;;;;;;;25.48;15.75;;;;;;;;;;5038883;28;20194;-67
2022/12/12 11:29:42;;;;;;;22.60;14.70;;;;;;;;;;5038779;28;20193;-67
2022/12/12 11:32:11;;;;;;;22.33;16.08;;;;;;;;;;5039061;28;20204;-67
2022/12/12 11:34:39;;;;;;;19.75;14.23;;;;;;;;;;5038657;28;20197;-67
2022/12/12 11:37:06;;;;;;;19.52;14.43;;;;;;;;;;5038902;28;20221;-67
2022/12/12 11:39:33;;;;;;;23.52;14.98;;;;;;;;;;5038724;28;20388;-67
2022/12/12 11:42:01;;;;;;;21.17;15.30;;;;;;;;;;5039011;28;20379;-67
2022/12/12 11:44:31;;;;;;;24.38;14.65;;;;;;;;;;5038964;28;20206;-67
2022/12/12 11:47:14;;;;;;;23.55;15.80;;;;;;;;;;5038826;28;20201;-67
2022/12/12 11:49:46;;;;;;;21.05;14.95;;;;;;;;;;5038814;28;20344;-67
2022/12/12 11:52:17;;;;;;;20.50;15.30;;;;;;;;;;5038858;28;20524;-67
2022/12/12 11:54:43;;;;;;;22.42;15.23;;;;;;;;;;5038636;28;20218;-67
2022/12/12 11:57:13;;;;;;;24.00;15.50;;;;;;;;;;5038659;28;20225;-67
2022/12/12 11:59:53;;;;;;;22.55;15.77;;;;;;;;;;5038289;28;20198;-67
2022/12/12 12:02:32;;;;;;;21.35;14.63;;;;;;;;;;5038835;28;20229;-67
2022/12/12 12:05:04;;;;;;;23.45;15.05;;;;;;;;;;5038639;28;20206;-67
2022/12/12 12:07:43;;;;;;;29.90;19.70;;;;;;;;;;5041656;28;20194;-67
2022/12/12 12:10:15;;;;;;;19.77;14.18;;;;;;;;;;5041599;28;20206;-67
2022/12/12 12:12:48;;;;;;;22.75;15.20;;;;;;;;;;5042263;28;20377;-67
2022/12/12 12:15:19;;;;;;;21.70;14.27;;;;;;;;;;5042277;28;20235;-68
2022/12/12 12:18:03;;;;;;;18.67;14.13;;;;;;;;;;5042017;28;20308;-68
2022/12/12 12:20:36;;;;;;;19.50;14.57;;;;;;;;;;5041463;28;20216;-68
2022/12/12 12:23:05;;;;;;;18.73;14.27;;;;;;;;;;5041526;28;20204;-67
2022/12/12 12:25:35;;;;;;;22.77;13.60;;;;;;;;;;5041886;28;20198;-67
2022/12/12 12:28:07;;;;;;;17.92;13.77;;;;;;;;;;5041572;28;20228;-67
2022/12/12 12:30:39;;;;;;;20.35;13.95;;;;;;;;;;5041553;28;20520;-67
2022/12/12 12:33:18;;;;;;;18.85;14.25;;;;;;;;;;5041743;27;20198;-67
2022/12/12 12:35:54;;;;;;;18.83;14.02;;;;;;;;;;5041860;27;20534;-67
2022/12/12 12:38:25;;;;;;;23.30;15.00;;;;;;;;;;5041460;28;20193;-67
2022/12/12 12:41:01;;;;;;;19.25;13.70;;;;;;;;;;5041687;28;20209;-67
2022/12/12 12:43:35;;;;;;;21.55;14.98;;;;;;;;;;5041788;28;20205;-67
2022/12/12 12:46:07;;;;;;;18.77;13.40;;;;;;;;;;5041384;28;20197;-67
2022/12/12 12:48:36;;;;;;;14.70;12.70;;;;;;;;;;5041003;28;20197;-67
2022/12/12 12:51:08;;;;;;;15.23;11.70;;;;;;;;;;5041422;28;20198;-67
2022/12/12 12:53:37;;;;;;;20.20;13.57;;;;;;;;;;5041255;28;20202;-67
2022/12/12 12:56:05;;;;;;;21.63;13.55;;;;;;;;;;5041025;28;20198;-67
2022/12/12 12:58:34;;;;;;;17.65;12.75;;;;;;;;;;5041102;28;20391;-67
2022/12/12 13:01:04;;;;;;;17.58;12.07;;;;;;;;;;5041077;28;20273;-67
2022/12/12 13:03:34;;;;;;;16.95;12.80;;;;;;;;;;5041337;28;20198;-67
2022/12/12 13:06:02;;;;;;;15.80;12.25;;;;;;;;;;5041232;28;20209;-67
2022/12/12 13:08:32;;;;;;;25.92;15.40;;;;;;;;;;5040815;28;20209;-67
2022/12/12 13:11:01;;;;;;;18.52;12.98;;;;;;;;;;5041035;28;20196;-67
2022/12/12 13:13:29;;;;;;;15.15;11.68;;;;;;;;;;5041026;28;20417;-67
2022/12/12 13:15:58;;;;;;;19.75;13.75;;;;;;;;;;5040943;27;20201;-68
2022/12/12 13:18:25;;;;;;;18.90;13.05;;;;;;;;;;5040135;28;20214;-67
2022/12/12 13:20:54;;;;;;;22.02;12.30;;;;;;;;;;5040820;27;20212;-67
2022/12/12 13:23:31;;;;;;;18.95;12.52;;;;;;;;;;5040709;28;20205;-67
2022/12/12 13:26:01;;;;;;;16.58;12.63;;;;;;;;;;5040904;27;20197;-67
2022/12/12 13:28:28;;;;;;;14.77;11.70;;;;;;;;;;5040549;28;20221;-67
2022/12/12 13:31:05;;;;;;;16.27;10.95;;;;;;;;;;5040856;28;20220;-67
2022/12/12 13:33:37;;;;;;;15.93;12.27;;;;;;;;;;5040596;28;20506;-67
2022/12/12 13:36:07;;;;;;;16.25;12.18;;;;;;;;;;5040726;28;20198;-67
2022/12/12 13:38:34;;;;;;;17.05;13.10;;;;;;;;;;5040483;28;20221;-69
2022/12/12 13:41:03;;;;;;;60.08;25.38;;;;;;;;;;5040984;28;20354;-67
2022/12/12 13:43:39;;;;;;;123.35;42.45;;;;;;;;;;5040596;28;20198;-66
2022/12/12 13:46:20;;;;;;;20.17;13.48;;;;;;;;;;5040513;28;20198;-67
2022/12/12 13:48:47;;;;;;;44.00;19.67;;;;;;;;;;5040108;28;20232;-66
2022/12/12 13:51:33;;;;;;;30.40;20.13;;;;;;;;;;5040466;28;20198;-66
2022/12/12 13:54:18;;;;;;;19.67;13.43;;;;;;;;;;5040620;27;20197;-66
2022/12/12 13:56:46;;;;;;;15.95;10.77;;;;;;;;;;5040403;28;20248;-68
2022/12/12 13:59:28;;;;;;;11.00;9.85;;;;;;;;;;5040047;28;20456;-67
2022/12/12 14:01:55;;;;;;;14.38;10.45;;;;;;;;;;5040365;28;20198;-67
2022/12/12 14:04:26;;;;;;;14.23;10.07;;;;;;;;;;5040322;28;20208;-67
2022/12/12 14:06:58;;;;;;;16.35;10.30;;;;;;;;;;5040173;28;20194;-67
2022/12/12 14:09:29;;;;;;;16.95;11.18;;;;;;;;;;5039995;28;20216;-68
2022/12/12 14:12:03;;;;;;;12.85;10.55;;;;;;;;;;5040314;28;20190;-66
2022/12/12 14:14:30;;;;;;;13.68;10.43;;;;;;;;;;5040333;28;20212;-66
2022/12/12 14:16:57;;;;;;;14.70;10.48;;;;;;;;;;5040049;28;20525;-66
2022/12/12 14:19:33;;;;;;;13.48;10.20;;;;;;;;;;5039824;28;20509;-66
2022/12/12 14:22:00;;;;;;;16.13;11.30;;;;;;;;;;5040231;28;20198;-66
2022/12/12 14:24:41;;;;;;;16.33;10.75;;;;;;;;;;5040011;28;20216;-66
2022/12/12 14:27:09;;;;;;;15.07;10.65;;;;;;;;;;5039803;28;20269;-66
2022/12/12 14:29:39;;;;;;;16.70;10.30;;;;;;;;;;5038684;28;20505;-68
2022/12/12 14:32:16;;;;;;;15.80;11.07;;;;;;;;;;5040126;28;20204;-67
2022/12/12 14:34:46;;;;;;;13.80;10.23;;;;;;;;;;5040064;28;20204;-67
2022/12/12 14:37:27;;;;;;;15.88;10.43;;;;;;;;;;5039803;28;20218;-67
2022/12/12 14:39:56;;;;;;;16.80;10.82;;;;;;;;;;5039574;28;20225;-67
2022/12/12 14:42:32;;;;;;;18.75;10.82;;;;;;;;;;5039640;28;20261;-66